Time;durP1;ratioP1;P1;durP2;ratioP2;P2;SDS_P1;SDS_P2;PMS_P1;PMS_P2;Temp;Humidity;BMP_temperature;BMP_pressure;BME280_temperature;BME280_humidity;BME280_pressure;Samples;Min_cycle;Max_cycle;Signal;HPM_P1;HPM_P2
2023/04/04 00:00:29;;;;;;;21.88;4.00;;;;;;;;;;5051480;28;20105;-69
2023/04/04 00:02:55;;;;;;;12.13;4.05;;;;;;;;;;5061489;28;20029;-71
2023/04/04 00:05:21;;;;;;;14.88;4.47;;;;;;;;;;5071206;28;20538;-71
2023/04/04 00:07:47;;;;;;;14.43;3.95;;;;;;;;;;5071410;28;20020;-71
2023/04/04 00:10:13;;;;;;;13.10;4.15;;;;;;;;;;5071614;28;20044;-71
2023/04/04 00:12:39;;;;;;;13.13;4.15;;;;;;;;;;5071279;28;20029;-70
2023/04/04 00:15:06;;;;;;;12.60;4.03;;;;;;;;;;5071410;28;20031;-70
2023/04/04 00:17:32;;;;;;;16.25;4.53;;;;;;;;;;5071297;28;20038;-71
2023/04/04 00:19:58;;;;;;;19.95;4.18;;;;;;;;;;5071555;28;20047;-71
2023/04/04 00:22:24;;;;;;;12.38;4.40;;;;;;;;;;5073895;28;20080;-71
2023/04/04 00:24:50;;;;;;;11.15;4.15;;;;;;;;;;5073099;28;20024;-69
2023/04/04 00:27:16;;;;;;;15.95;4.53;;;;;;;;;;5074361;28;20425;-71
2023/04/04 00:29:42;;;;;;;16.17;4.65;;;;;;;;;;5075759;28;20031;-71
2023/04/04 00:32:08;;;;;;;17.50;4.28;;;;;;;;;;5076647;28;20104;-71
2023/04/04 00:34:35;;;;;;;11.63;4.30;;;;;;;;;;5076634;28;20025;-70
2023/04/04 00:37:01;;;;;;;11.25;3.90;;;;;;;;;;5075857;28;20036;-70
2023/04/04 00:39:27;;;;;;;13.60;4.47;;;;;;;;;;5075088;28;20028;-71
2023/04/04 00:41:53;;;;;;;16.35;4.72;;;;;;;;;;5074777;28;20077;-71
2023/04/04 00:44:19;;;;;;;17.02;4.80;;;;;;;;;;5075131;28;20033;-71
2023/04/04 00:46:45;;;;;;;9.60;4.18;;;;;;;;;;5074870;28;20053;-71
2023/04/04 00:49:11;;;;;;;12.63;4.57;;;;;;;;;;5074920;28;20023;-72
2023/04/04 00:51:37;;;;;;;11.15;4.38;;;;;;;;;;5074952;28;20489;-70
2023/04/04 00:54:03;;;;;;;13.68;4.43;;;;;;;;;;5074683;28;20069;-70
2023/04/04 00:56:30;;;;;;;11.90;4.40;;;;;;;;;;5074959;28;20071;-70
2023/04/04 00:58:56;;;;;;;15.07;3.80;;;;;;;;;;5074893;28;20441;-71
2023/04/04 01:01:24;;;;;;;15.18;4.50;;;;;;;;;;5075034;28;20063;-71
2023/04/04 01:03:51;;;;;;;9.68;4.03;;;;;;;;;;5075042;28;20025;-71
2023/04/04 01:06:17;;;;;;;11.20;4.00;;;;;;;;;;5075034;28;20120;-71
2023/04/04 01:08:43;;;;;;;13.05;4.00;;;;;;;;;;5074310;28;20032;-71
2023/04/04 01:11:09;;;;;;;13.85;4.28;;;;;;;;;;5075095;28;20032;-70
2023/04/04 01:13:35;;;;;;;17.65;4.68;;;;;;;;;;5074274;28;20032;-69
2023/04/04 01:16:01;;;;;;;14.30;4.13;;;;;;;;;;5074673;28;20035;-71
2023/04/04 01:18:28;;;;;;;9.55;4.20;;;;;;;;;;5074441;28;20028;-70
2023/04/04 01:20:57;;;;;;;15.48;4.20;;;;;;;;;;5074569;28;20040;-71
2023/04/04 01:23:29;;;;;;;21.00;4.57;;;;;;;;;;5074293;28;20493;-71
2023/04/04 01:26:06;;;;;;;14.13;4.68;;;;;;;;;;5074346;28;20110;-70
2023/04/04 01:28:32;;;;;;;12.40;4.57;;;;;;;;;;5074142;28;20564;-71
2023/04/04 01:31:00;;;;;;;12.98;4.70;;;;;;;;;;5074147;28;20032;-69
2023/04/04 01:33:31;;;;;;;12.98;4.95;;;;;;;;;;5073961;28;20025;-71
2023/04/04 01:36:07;;;;;;;17.02;4.22;;;;;;;;;;5074128;28;20019;-71
2023/04/04 01:38:42;;;;;;;8.95;4.45;;;;;;;;;;5073780;28;20503;-71
2023/04/04 01:41:09;;;;;;;17.33;4.55;;;;;;;;;;5070514;28;20110;-69
2023/04/04 01:43:36;;;;;;;13.88;4.20;;;;;;;;;;5053641;28;20025;-69
2023/04/04 01:46:02;;;;;;;13.80;4.35;;;;;;;;;;5063941;28;20025;-70
2023/04/04 01:48:28;;;;;;;16.95;4.30;;;;;;;;;;5073749;28;20027;-70
2023/04/04 01:50:55;;;;;;;12.57;4.32;;;;;;;;;;5073341;28;20390;-71
2023/04/04 01:53:21;;;;;;;12.60;4.05;;;;;;;;;;5073527;28;20016;-70
2023/04/04 01:55:48;;;;;;;13.40;5.00;;;;;;;;;;5073741;28;20470;-70
2023/04/04 01:58:14;;;;;;;14.65;4.00;;;;;;;;;;5073487;28;20068;-70
2023/04/04 02:00:40;;;;;;;14.25;4.05;;;;;;;;;;5073680;28;20401;-71
2023/04/04 02:03:06;;;;;;;18.10;4.90;;;;;;;;;;5073216;28;20554;-70
2023/04/04 02:05:32;;;;;;;9.63;4.00;;;;;;;;;;5073533;28;20107;-75
2023/04/04 02:07:58;;;;;;;14.23;4.10;;;;;;;;;;5073248;28;20107;-71
2023/04/04 02:10:24;;;;;;;10.23;3.80;;;;;;;;;;5073209;28;20027;-71
2023/04/04 02:12:52;;;;;;;12.57;4.35;;;;;;;;;;5073145;28;20577;-70
2023/04/04 02:15:18;;;;;;;12.25;4.80;;;;;;;;;;5073007;28;20025;-70
2023/04/04 02:17:47;;;;;;;15.65;5.63;;;;;;;;;;5073048;28;20024;-70
2023/04/04 02:20:13;;;;;;;16.83;6.55;;;;;;;;;;5072963;28;20557;-71
2023/04/04 02:22:39;;;;;;;18.13;4.78;;;;;;;;;;5072652;28;20135;-70
2023/04/04 02:25:05;;;;;;;12.43;4.30;;;;;;;;;;5073135;28;20024;-70
2023/04/04 02:27:31;;;;;;;13.55;4.40;;;;;;;;;;5073015;28;20456;-69
2023/04/04 02:29:57;;;;;;;14.48;4.20;;;;;;;;;;5072926;28;20056;-70
2023/04/04 02:32:23;;;;;;;12.80;4.53;;;;;;;;;;5072405;28;20095;-70
2023/04/04 02:34:50;;;;;;;10.45;4.13;;;;;;;;;;5072819;28;20108;-71
2023/04/04 02:37:16;;;;;;;12.82;4.95;;;;;;;;;;5072617;28;20025;-69
2023/04/04 02:39:42;;;;;;;11.82;4.20;;;;;;;;;;5072741;28;20027;-70
2023/04/04 02:42:08;;;;;;;16.48;5.00;;;;;;;;;;5072099;28;20108;-69
2023/04/04 02:44:34;;;;;;;7.95;4.43;;;;;;;;;;5072683;28;20024;-70
2023/04/04 02:47:00;;;;;;;12.52;3.95;;;;;;;;;;5072184;28;20035;-70
2023/04/04 02:49:28;;;;;;;15.05;4.53;;;;;;;;;;5071774;28;20033;-70
2023/04/04 02:51:54;;;;;;;14.40;4.25;;;;;;;;;;5071993;28;20107;-70
2023/04/04 02:54:20;;;;;;;9.90;4.28;;;;;;;;;;5072655;28;20047;-69
2023/04/04 02:56:46;;;;;;;8.95;3.88;;;;;;;;;;5072193;28;20033;-70
2023/04/04 02:59:12;;;;;;;13.10;5.50;;;;;;;;;;5072436;28;20032;-70
2023/04/04 03:01:38;;;;;;;12.55;4.47;;;;;;;;;;5072257;28;20085;-70
2023/04/04 03:04:04;;;;;;;13.25;4.20;;;;;;;;;;5072191;28;20020;-70
2023/04/04 03:06:33;;;;;;;11.90;4.35;;;;;;;;;;5072757;28;20020;-70
2023/04/04 03:08:59;;;;;;;13.90;4.60;;;;;;;;;;5072236;28;20157;-71
2023/04/04 03:11:26;;;;;;;10.70;4.53;;;;;;;;;;5072264;28;20021;-70
2023/04/04 03:13:53;;;;;;;21.10;4.35;;;;;;;;;;5072415;28;20493;-70
2023/04/04 03:16:19;;;;;;;10.98;4.20;;;;;;;;;;5072348;28;20047;-69
2023/04/04 03:18:45;;;;;;;15.52;4.43;;;;;;;;;;5072217;28;20032;-70
2023/04/04 03:21:12;;;;;;;17.17;4.85;;;;;;;;;;5072200;28;20103;-69
2023/04/04 03:23:38;;;;;;;20.42;6.25;;;;;;;;;;5071916;28;20059;-71
2023/04/04 03:26:04;;;;;;;18.15;5.85;;;;;;;;;;5072189;28;20052;-70
2023/04/04 03:28:30;;;;;;;19.25;5.47;;;;;;;;;;5071721;28;20020;-72
2023/04/04 03:30:56;;;;;;;25.45;6.35;;;;;;;;;;5072345;28;20023;-70
2023/04/04 03:33:22;;;;;;;17.75;6.28;;;;;;;;;;5073013;28;20462;-70
2023/04/04 03:35:48;;;;;;;22.20;6.55;;;;;;;;;;5072201;28;20020;-69
2023/04/04 03:38:14;;;;;;;16.42;5.28;;;;;;;;;;5071941;28;20473;-71
2023/04/04 03:40:40;;;;;;;16.73;5.47;;;;;;;;;;5072017;28;20474;-70
2023/04/04 03:43:09;;;;;;;11.70;4.20;;;;;;;;;;5071486;28;20375;-69
2023/04/04 03:45:35;;;;;;;12.50;3.95;;;;;;;;;;5071964;28;20374;-69
2023/04/04 03:48:01;;;;;;;14.60;4.45;;;;;;;;;;5072452;28;20031;-72
2023/04/04 03:50:27;;;;;;;9.20;4.03;;;;;;;;;;5071544;28;20025;-69
2023/04/04 03:52:53;;;;;;;18.58;5.65;;;;;;;;;;5071194;28;20025;-72
2023/04/04 03:55:19;;;;;;;9.05;4.35;;;;;;;;;;5071640;28;20028;-71
2023/04/04 03:57:46;;;;;;;14.43;4.68;;;;;;;;;;5071372;28;20036;-70
2023/04/04 04:00:12;;;;;;;15.38;5.55;;;;;;;;;;5072036;28;20052;-70
2023/04/04 04:02:38;;;;;;;19.20;4.63;;;;;;;;;;5071391;28;20100;-71
2023/04/04 04:05:04;;;;;;;12.38;4.53;;;;;;;;;;5071865;28;20384;-71
2023/04/04 04:07:30;;;;;;;12.23;4.38;;;;;;;;;;5071503;28;20108;-71
2023/04/04 04:09:56;;;;;;;21.55;4.93;;;;;;;;;;5053484;28;20051;-71
2023/04/04 04:12:22;;;;;;;15.88;4.88;;;;;;;;;;5071077;28;20078;-69
2023/04/04 04:14:48;;;;;;;19.98;5.13;;;;;;;;;;5071450;28;20117;-72
2023/04/04 04:17:14;;;;;;;26.13;12.18;;;;;;;;;;5071375;28;20025;-70
2023/04/04 04:19:40;;;;;;;11.82;4.93;;;;;;;;;;5071742;28;20104;-72
2023/04/04 04:22:06;;;;;;;20.05;5.05;;;;;;;;;;5071402;28;20024;-73
2023/04/04 04:24:32;;;;;;;13.48;4.93;;;;;;;;;;5072268;28;20385;-70
2023/04/04 04:26:58;;;;;;;18.90;4.60;;;;;;;;;;5070956;28;20108;-70
2023/04/04 04:29:24;;;;;;;12.13;4.65;;;;;;;;;;5071195;28;20024;-71
2023/04/04 04:31:51;;;;;;;13.05;4.78;;;;;;;;;;5070978;28;20060;-72
2023/04/04 04:34:17;;;;;;;11.68;4.38;;;;;;;;;;5071309;28;20347;-71
2023/04/04 04:36:43;;;;;;;13.63;4.32;;;;;;;;;;5071508;28;20088;-70
2023/04/04 04:39:10;;;;;;;12.07;4.75;;;;;;;;;;5058973;28;20020;-71
2023/04/04 04:41:36;;;;;;;14.32;4.45;;;;;;;;;;5076347;28;20029;-72
2023/04/04 04:44:02;;;;;;;9.85;4.03;;;;;;;;;;5075585;28;20035;-71
2023/04/04 04:46:28;;;;;;;18.05;4.95;;;;;;;;;;5072730;28;20421;-71
2023/04/04 04:48:54;;;;;;;15.68;5.22;;;;;;;;;;5072116;28;20016;-72
2023/04/04 04:51:20;;;;;;;11.70;5.40;;;;;;;;;;5071633;28;20031;-72
2023/04/04 04:53:46;;;;;;;16.35;5.13;;;;;;;;;;5071743;28;20028;-71
2023/04/04 04:56:12;;;;;;;28.58;7.45;;;;;;;;;;5070729;28;20393;-71
2023/04/04 04:58:38;;;;;;;30.55;10.90;;;;;;;;;;5071024;28;20089;-70
2023/04/04 05:01:04;;;;;;;21.48;7.45;;;;;;;;;;5070794;28;20095;-70
2023/04/04 05:03:30;;;;;;;25.92;6.10;;;;;;;;;;5070465;28;20318;-70
2023/04/04 05:05:56;;;;;;;16.77;4.53;;;;;;;;;;5071167;28;20035;-71
2023/04/04 05:08:22;;;;;;;18.60;4.95;;;;;;;;;;5070848;28;20151;-73
2023/04/04 05:10:49;;;;;;;11.25;4.63;;;;;;;;;;5071032;28;20354;-70
2023/04/04 05:13:16;;;;;;;20.20;6.40;;;;;;;;;;5073739;28;20055;-71
2023/04/04 05:15:42;;;;;;;13.07;5.45;;;;;;;;;;5074558;28;20054;-71
2023/04/04 05:18:08;;;;;;;21.63;6.25;;;;;;;;;;5074845;28;20037;-73
2023/04/04 05:20:34;;;;;;;15.00;6.10;;;;;;;;;;5074259;28;20028;-72
2023/04/04 05:23:00;;;;;;;15.98;5.75;;;;;;;;;;5073939;28;20033;-70
2023/04/04 05:25:26;;;;;;;16.02;5.80;;;;;;;;;;5072928;28;20082;-72
2023/04/04 05:27:54;;;;;;;14.52;4.80;;;;;;;;;;5066493;28;20012;-72
2023/04/04 05:30:20;;;;;;;18.00;4.97;;;;;;;;;;5066040;28;20017;-75
2023/04/04 05:32:46;;;;;;;15.90;5.72;;;;;;;;;;5064764;28;20079;-72
2023/04/04 05:35:12;;;;;;;14.73;6.00;;;;;;;;;;5067392;28;20375;-73
2023/04/04 05:37:39;;;;;;;14.18;5.32;;;;;;;;;;5060482;28;20536;-74
2023/04/04 05:40:05;;;;;;;21.13;5.32;;;;;;;;;;5063551;28;20025;-71
2023/04/04 05:42:31;;;;;;;15.70;6.00;;;;;;;;;;5063032;28;20036;-73
2023/04/04 05:44:57;;;;;;;20.67;5.75;;;;;;;;;;5061912;28;20035;-72
2023/04/04 05:47:23;;;;;;;16.48;5.63;;;;;;;;;;5064711;28;20027;-73
2023/04/04 05:49:49;;;;;;;23.83;5.22;;;;;;;;;;5062488;28;20021;-76
2023/04/04 05:52:15;;;;;;;19.15;5.80;;;;;;;;;;5065935;28;20056;-73
2023/04/04 05:54:41;;;;;;;23.75;5.70;;;;;;;;;;5062842;28;20436;-73
2023/04/04 05:57:07;;;;;;;22.77;6.70;;;;;;;;;;5060409;28;20635;-73
2023/04/04 05:59:33;;;;;;;15.65;5.38;;;;;;;;;;5064233;28;20083;-73
2023/04/04 06:02:00;;;;;;;16.60;5.43;;;;;;;;;;5062598;28;20070;-72
2023/04/04 06:04:26;;;;;;;16.55;6.25;;;;;;;;;;5064932;28;20035;-77
2023/04/04 06:06:52;;;;;;;15.38;5.40;;;;;;;;;;5061774;28;20021;-74
2023/04/04 06:09:18;;;;;;;14.60;5.38;;;;;;;;;;5063401;28;20040;-76
2023/04/04 06:11:44;;;;;;;12.30;4.90;;;;;;;;;;5064313;28;20132;-72
2023/04/04 06:14:10;;;;;;;21.75;5.25;;;;;;;;;;5061804;28;20083;-73
2023/04/04 06:16:36;;;;;;;20.33;5.78;;;;;;;;;;5066017;28;20028;-73
2023/04/04 06:19:02;;;;;;;14.80;5.30;;;;;;;;;;5064166;28;20085;-72
2023/04/04 06:21:28;;;;;;;17.83;5.22;;;;;;;;;;5046265;28;20039;-73
2023/04/04 06:23:54;;;;;;;17.05;5.10;;;;;;;;;;5063437;28;20027;-73
2023/04/04 06:26:20;;;;;;;14.27;4.75;;;;;;;;;;5064711;28;20451;-75
2023/04/04 06:28:50;;;;;;;12.98;4.70;;;;;;;;;;5058794;28;20029;-75
2023/04/04 06:31:16;;;;;;;16.17;4.63;;;;;;;;;;5061993;28;20027;-73
2023/04/04 06:33:42;;;;;;;18.40;5.32;;;;;;;;;;5067306;28;20024;-72
2023/04/04 06:36:08;;;;;;;13.32;4.68;;;;;;;;;;5060894;28;20029;-72
2023/04/04 06:38:35;;;;;;;17.83;4.68;;;;;;;;;;5052831;28;20029;-71
2023/04/04 06:41:01;;;;;;;18.38;3.95;;;;;;;;;;5054064;28;20014;-71
2023/04/04 06:43:27;;;;;;;13.68;5.07;;;;;;;;;;5033852;28;20017;-70
2023/04/04 06:45:54;;;;;;;14.80;4.30;;;;;;;;;;5063218;28;20025;-70
2023/04/04 06:48:20;;;;;;;16.63;4.93;;;;;;;;;;5063880;28;20040;-70
2023/04/04 06:50:46;;;;;;;12.15;4.55;;;;;;;;;;5053564;28;20755;-72
2023/04/04 06:53:13;;;;;;;14.70;5.15;;;;;;;;;;5071228;28;20032;-71
2023/04/04 06:55:39;;;;;;;16.20;4.57;;;;;;;;;;5071640;28;20396;-70
2023/04/04 06:58:05;;;;;;;18.58;4.75;;;;;;;;;;5071063;28;20509;-71
2023/04/04 07:00:31;;;;;;;11.48;4.63;;;;;;;;;;5071221;28;20033;-70
2023/04/04 07:02:58;;;;;;;19.45;4.85;;;;;;;;;;5070345;28;20436;-72
2023/04/04 07:05:24;;;;;;;14.63;4.30;;;;;;;;;;5071231;28;20013;-71
2023/04/04 07:07:53;;;;;;;14.23;4.07;;;;;;;;;;5070851;28;20077;-71
2023/04/04 07:10:20;;;;;;;28.73;7.38;;;;;;;;;;5071630;28;20071;-71
2023/04/04 07:12:47;;;;;;;28.35;9.82;;;;;;;;;;5071089;28;20474;-71
2023/04/04 07:15:13;;;;;;;42.05;13.48;;;;;;;;;;5070690;28;20486;-71
2023/04/04 07:17:40;;;;;;;40.03;16.88;;;;;;;;;;5071124;28;20036;-72
2023/04/04 07:20:08;;;;;;;47.35;17.90;;;;;;;;;;5072086;28;20033;-71
2023/04/04 07:22:41;;;;;;;31.90;12.27;;;;;;;;;;5072088;28;20032;-72
2023/04/04 07:25:07;;;;;;;39.72;14.07;;;;;;;;;;5071917;28;20241;-71
2023/04/04 07:27:33;;;;;;;30.00;10.95;;;;;;;;;;5072285;28;20453;-72
2023/04/04 07:29:59;;;;;;;16.90;4.47;;;;;;;;;;5074891;28;20024;-73
2023/04/04 07:32:25;;;;;;;12.00;3.60;;;;;;;;;;5072153;28;20085;-70
2023/04/04 07:34:51;;;;;;;14.43;3.53;;;;;;;;;;5071335;28;20052;-73
2023/04/04 07:37:17;;;;;;;14.05;3.78;;;;;;;;;;5071454;28;20425;-69
2023/04/04 07:39:44;;;;;;;14.13;4.05;;;;;;;;;;5071446;28;20024;-70
2023/04/04 07:42:10;;;;;;;10.10;3.97;;;;;;;;;;5071281;28;20029;-70
2023/04/04 07:44:36;;;;;;;15.95;3.20;;;;;;;;;;5072143;28;20028;-71
2023/04/04 07:47:02;;;;;;;7.28;2.95;;;;;;;;;;5071729;28;20025;-68
2023/04/04 07:49:28;;;;;;;8.38;2.95;;;;;;;;;;5071342;28;20029;-70
2023/04/04 07:51:54;;;;;;;8.63;3.10;;;;;;;;;;5072027;28;20032;-70
2023/04/04 07:54:21;;;;;;;10.30;2.40;;;;;;;;;;5072912;28;20397;-70
2023/04/04 07:56:47;;;;;;;9.80;2.33;;;;;;;;;;5072529;28;20115;-70
2023/04/04 07:59:12;;;;;;;7.13;1.70;;;;;;;;;;5072441;28;20060;-69
2023/04/04 08:01:38;;;;;;;9.50;2.40;;;;;;;;;;5074105;28;20059;-72
2023/04/04 08:04:05;;;;;;;6.75;2.40;;;;;;;;;;5072867;28;20096;-75
2023/04/04 08:06:32;;;;;;;11.43;2.72;;;;;;;;;;5069983;28;20110;-78
2023/04/04 08:08:58;;;;;;;8.35;2.47;;;13.00;99.90;;;;;;5071570;28;20021;-71
2023/04/04 08:11:24;;;;;;;10.48;2.75;;;6.70;1.00;;;;;;5071506;28;20033;-69
2023/04/04 08:13:50;;;;;;;11.73;2.90;;;6.60;1.00;;;;;;5070870;28;20046;-69
2023/04/04 08:16:16;;;;;;;8.15;2.78;;;6.80;1.00;;;;;;5071100;28;20021;-69
2023/04/04 08:18:42;;;;;;;84.47;30.52;;;7.00;1.00;;;;;;5071238;28;20397;-71
2023/04/04 08:21:07;;;;;;;26.25;9.65;;;7.20;1.00;;;;;;5061811;28;20037;-68
2023/04/04 08:23:34;;;;;;;8.45;2.90;;;7.40;1.00;;;;;;5058905;28;20024;-69
2023/04/04 08:25:59;;;;;;;10.63;3.22;;;7.60;1.00;;;;;;5071292;28;20025;-69
2023/04/04 08:28:28;;;;;;;5.80;2.58;;;7.70;99.90;;;;;;5070933;28;20351;-70
2023/04/04 08:30:54;;;;;;;9.10;3.10;;;7.90;99.90;;;;;;5071048;28;20493;-69
2023/04/04 08:33:22;;;;;;;7.85;2.78;;;8.10;99.90;;;;;;5070990;28;20119;-69
2023/04/04 08:35:48;;;;;;;7.57;2.80;;;8.30;2.50;;;;;;5071035;28;20033;-69
2023/04/04 08:38:14;;;;;;;7.70;2.83;;;8.40;1.00;;;;;;5070387;28;20099;-69
2023/04/04 08:40:40;;;;;;;6.68;2.72;;;8.60;1.00;;;;;;5071066;28;20189;-69
2023/04/04 08:43:07;;;;;;;11.23;2.67;;;8.70;1.00;;;;;;5070302;28;20042;-69
2023/04/04 08:45:33;;;;;;;10.75;3.45;;;8.70;1.00;;;;;;5071312;28;20071;-69
2023/04/04 08:48:02;;;;;;;8.60;2.70;;;8.70;1.00;;;;;;5073667;28;20082;-69
2023/04/04 08:50:29;;;;;;;8.82;2.72;;;8.70;1.00;;;;;;5075498;28;20047;-69
2023/04/04 08:52:58;;;;;;;6.22;2.60;;;8.80;1.00;;;;;;5074054;28;20036;-69
2023/04/04 08:55:24;;;;;;;7.38;2.67;;;8.90;1.00;;;;;;5075129;28;20021;-70
2023/04/04 08:57:50;;;;;;;8.55;2.22;;;9.20;1.00;;;;;;5074622;28;20547;-69
2023/04/04 09:00:16;;;;;;;6.50;3.20;;;9.60;99.90;;;;;;5075284;28;20032;-69
2023/04/04 09:03:08;;;;;;;6.45;2.70;;;10.00;99.90;;;;;;5074343;28;20043;-69
2023/04/04 09:05:34;;;;;;;10.30;2.97;;;10.60;99.90;;;;;;5073908;28;20093;-69
2023/04/04 09:08:02;;;;;;;10.88;2.85;;;11.30;76.20;;;;;;5070190;28;20025;-70
2023/04/04 09:10:28;;;;;;;8.50;2.80;;;12.10;1.00;;;;;;5055128;28;20017;-74
2023/04/04 09:12:55;;;;;;;8.60;2.33;;;12.80;1.00;;;;;;5054558;28;20021;-72
2023/04/04 09:15:21;;;;;;;13.27;2.25;;;;;;;;;;5054071;28;20025;-70
2023/04/04 09:17:47;;;;;;;9.80;2.28;;;14.40;1.00;;;;;;5053464;28;20017;-71
2023/04/04 09:20:36;;;;;;;12.55;4.22;;;15.10;1.00;;;;;;5054090;28;20025;-70
2023/04/04 09:23:06;;;;;;;7.75;2.20;;;15.70;1.00;;;;;;5053223;28;20089;-70
2023/04/04 09:25:33;;;;;;;6.85;2.10;;;15.90;1.00;;;;;;5053459;28;20356;-71
2023/04/04 09:28:00;;;;;;;8.15;2.60;;;15.90;99.90;;;;;;5054197;28;20035;-72
2023/04/04 09:30:26;;;;;;;10.63;2.35;;;16.40;99.90;;;;;;5053531;28;20100;-73
2023/04/04 09:32:52;;;;;;;8.88;2.58;;;16.70;99.90;;;;;;5053792;28;20609;-71
2023/04/04 09:35:19;;;;;;;8.80;2.22;;;16.50;99.90;;;;;;5055788;28;20025;-75
2023/04/04 09:37:44;;;;;;;6.78;1.98;;;16.60;99.90;;;;;;5056248;28;20391;-72
2023/04/04 09:40:12;;;;;;;7.28;2.30;;;16.70;99.90;;;;;;5056440;28;20021;-73
2023/04/04 09:42:38;;;;;;;6.63;2.20;;;16.50;99.90;;;;;;5055892;28;20086;-73
2023/04/04 09:45:04;;;;;;;5.82;2.17;;;16.30;99.90;;;;;;5054266;28;20029;-71
2023/04/04 09:47:32;;;;;;;7.63;1.90;;;16.30;99.90;;;;;;5054593;28;20100;-72
2023/04/04 09:49:59;;;;;;;13.18;3.03;;;16.50;99.90;;;;;;5055407;28;20079;-72
2023/04/04 09:52:24;;;;;;;9.07;2.40;;;15.70;99.90;;;;;;5054042;28;20028;-70
2023/04/04 09:54:57;;;;;;;5.78;2.20;;;15.40;99.90;;;;;;5053791;28;20023;-70
2023/04/04 09:57:25;;;;;;;14.40;4.68;;;15.10;99.90;;;;;;5053225;28;20033;-71
2023/04/04 09:59:51;;;;;;;6.35;1.90;;;14.90;99.90;;;;;;5052844;28;20029;-71
2023/04/04 10:02:17;;;;;;;13.63;2.38;;;14.80;99.90;;;;;;5052715;28;20025;-69
2023/04/04 10:04:43;;;;;;;6.07;2.30;;;14.50;99.90;;;;;;5053061;28;20025;-70
2023/04/04 10:07:13;;;;;;;9.15;2.50;;;14.10;99.90;;;;;;5052140;28;20028;-72
2023/04/04 10:09:39;;;;;;;5.80;1.85;;;13.80;99.90;;;;;;5052072;28;20074;-70
2023/04/04 10:12:09;;;;;;;7.65;2.00;;;13.40;99.90;;;;;;5051722;28;20021;-70
2023/04/04 10:14:35;;;;;;;6.05;2.45;;;13.10;99.90;;;;;;5052289;28;20044;-70
2023/04/04 10:17:12;;;;;;;6.38;1.67;;;13.00;99.90;;;;;;5052056;28;20106;-69
2023/04/04 10:19:38;;;;;;;6.90;2.47;;;12.80;99.90;;;;;;5051958;28;20035;-69
2023/04/04 10:22:04;;;;;;;7.07;2.15;;;12.60;99.90;;;;;;5051924;28;20021;-70
2023/04/04 10:24:31;;;;;;;5.10;2.17;;;12.50;99.90;;;;;;5053480;28;20445;-70
2023/04/04 10:26:57;;;;;;;8.07;2.55;;;12.50;99.90;;;;;;5054479;28;20033;-71
2023/04/04 10:29:23;;;;;;;4.18;1.98;;;;;;;;;;5054122;28;20108;-71
2023/04/04 10:31:56;;;;;;;11.50;4.35;;;12.20;99.90;;;;;;5055084;28;20109;-70
2023/04/04 10:34:32;;;;;;;5.53;1.92;;;12.30;99.90;;;;;;5054907;28;20021;-69
2023/04/04 10:37:11;;;;;;;6.43;1.67;;;12.40;99.90;;;;;;5054499;28;20510;-69
2023/04/04 10:39:45;;;;;;;7.18;1.80;;;12.40;99.90;;;;;;5054095;28;20385;-70
2023/04/04 10:42:14;;;;;;;8.47;1.80;;;12.40;99.90;;;;;;5052839;28;20071;-69
2023/04/04 10:44:40;;;;;;;5.28;2.22;;;12.30;99.90;;;;;;5054442;28;20017;-68
2023/04/04 10:47:13;;;;;;;8.25;3.58;;;12.30;99.90;;;;;;5053179;28;20108;-69
2023/04/04 10:49:42;;;;;;;6.30;1.90;;;12.40;99.90;;;;;;5053012;28;20032;-69
2023/04/04 10:52:09;;;;;;;6.70;1.52;;;12.30;99.90;;;;;;5052699;28;20032;-69
2023/04/04 10:54:35;;;;;;;3.95;1.50;;;12.30;99.90;;;;;;5053986;28;20029;-70
2023/04/04 10:57:02;;;;;;;8.82;2.15;;;12.50;99.90;;;;;;5052985;28;20059;-70
2023/04/04 10:59:28;;;;;;;12.73;6.80;;;12.90;99.90;;;;;;5052568;28;20089;-68
2023/04/04 11:02:01;;;;;;;10.20;5.15;;;13.40;99.90;;;;;;5052083;28;20490;-69
2023/04/04 11:04:36;;;;;;;11.90;2.25;;;13.80;99.90;;;;;;5052496;28;20032;-68
2023/04/04 11:07:12;;;;;;;5.75;1.73;;;14.50;99.90;;;;;;5052447;28;20055;-68
2023/04/04 11:10:00;;;;;;;7.57;1.88;;;15.20;99.90;;;;;;5051441;28;20066;-68
2023/04/04 11:12:33;;;;;;;7.15;2.33;;;15.80;99.90;;;;;;5051922;28;20108;-70
2023/04/04 11:15:02;;;;;;;37.75;11.85;;;16.50;99.90;;;;;;5052057;28;20059;-69
2023/04/04 11:17:52;;;;;;;53.47;22.00;;;17.30;99.90;;;;;;5051797;28;20060;-70
2023/04/04 11:20:21;;;;;;;24.95;9.30;;;18.00;99.90;;;;;;5052135;28;20036;-69
2023/04/04 11:22:49;;;;;;;9.77;4.13;;;18.70;99.90;;;;;;5051953;28;20044;-71
2023/04/04 11:25:31;;;;;;;8.15;3.20;;;18.90;99.90;;;;;;5052506;28;20043;-69
2023/04/04 11:27:57;;;;;;;10.30;2.22;;;19.00;99.90;;;;;;5051958;28;20676;-69
2023/04/04 11:30:23;;;;;;;8.32;2.70;;;19.20;99.90;;;;;;5051721;28;20051;-70
2023/04/04 11:32:50;;;;;;;6.50;1.90;;;18.90;99.90;;;;;;5052090;28;20540;-70
2023/04/04 11:35:16;;;;;;;7.38;1.92;;;18.60;99.90;;;;;;5052027;28;20032;-70
2023/04/04 11:37:52;;;;;;;4.32;1.60;;;18.20;99.90;;;;;;5052151;28;20068;-71
2023/04/04 11:40:18;;;;;;;3.55;1.58;;;17.50;99.90;;;;;;5051624;28;20029;-71
2023/04/04 11:42:49;;;;;;;3.28;1.52;;;16.90;99.90;;;;;;5060310;28;20060;-70
2023/04/04 11:45:24;;;;;;;7.68;2.10;;;16.40;99.90;;;;;;5051965;28;20052;-70
2023/04/04 11:47:50;;;;;;;;;;;15.50;99.90;;;;;;5066331;28;20048;-70
2023/04/04 11:50:19;;;;;;;4.38;1.52;;;14.90;99.90;;;;;;5071621;28;20400;-69
2023/04/04 11:52:45;;;;;;;6.13;2.20;;;14.60;99.90;;;;;;5071076;28;20065;-76
2023/04/04 11:55:23;;;;;;;6.13;1.73;;;14.40;99.90;;;;;;5072901;28;20374;-69
2023/04/04 11:57:50;;;;;;;8.32;2.45;;;14.20;99.90;;;;;;5070890;28;20067;-69
2023/04/04 12:00:34;;;;;;;6.53;1.98;;;14.20;99.90;;;;;;5071781;28;20036;-71
2023/04/04 12:03:00;;;;;;;6.40;1.98;;;14.70;99.90;;;;;;5071206;28;20489;-68
2023/04/04 12:05:27;;;;;;;7.90;2.22;;;15.00;99.90;;;;;;5071999;28;20040;-71
2023/04/04 12:07:53;;;;;;;4.68;1.90;;;15.00;99.90;;;;;;5071426;28;20074;-70
2023/04/04 12:10:20;;;;;;;6.38;2.05;;;15.40;99.90;;;;;;5071594;28;20060;-72
2023/04/04 12:12:46;;;;;;;6.70;2.22;;;16.30;99.90;;;;;;5071247;28;20028;-71
2023/04/04 12:15:14;;;;;;;5.45;1.50;;;16.90;99.90;;;;;;5071576;28;20032;-70
2023/04/04 12:17:42;;;;;;;6.35;1.67;;;17.50;99.90;;;;;;5071034;28;20025;-70
2023/04/04 12:20:10;;;;;;;4.63;1.75;;;17.80;99.90;;;;;;5071508;28;20406;-69
2023/04/04 12:22:36;;;;;;;4.72;1.90;;;17.70;99.90;;;;;;5074318;28;20456;-68
2023/04/04 12:25:04;;;;;;;7.68;1.90;;;17.70;99.90;;;;;;5075669;28;20059;-71
2023/04/04 12:27:30;;;;;;;6.10;2.25;;;18.10;99.90;;;;;;5075303;28;20031;-71
2023/04/04 12:29:57;;;;;;;5.88;1.85;;;18.40;99.90;;;;;;5074022;28;20119;-72
2023/04/04 12:32:23;;;;;;;7.38;2.25;;;17.70;99.90;;;;;;5076360;28;20027;-72
2023/04/04 12:34:49;;;;;;;6.35;1.52;;;17.30;99.90;;;;;;5078360;28;20466;-71
2023/04/04 12:37:17;;;;;;;6.22;2.28;;;17.20;99.90;;;;;;5070392;28;20024;-70
2023/04/04 12:39:51;;;;;;;7.95;2.10;;;17.30;99.90;;;;;;5066455;28;20116;-71
2023/04/04 12:42:22;;;;;;;6.45;1.70;;;17.70;99.90;;;;;;5064651;28;20301;-70
2023/04/04 12:44:50;;;;;;;10.75;5.25;;;18.10;99.90;;;;;;5066358;28;20013;-70
2023/04/04 12:47:17;;;;;;;5.03;1.90;;;18.10;99.90;;;;;;5067306;28;20032;-71
2023/04/04 12:49:47;;;;;;;12.75;5.55;;;17.80;99.90;;;;;;5065121;28;20025;-70
2023/04/04 12:52:32;;;;;;;10.18;1.80;;;17.50;99.90;;;;;;5061504;28;20033;-71
2023/04/04 12:55:05;;;;;;;9.90;1.85;;;17.00;99.90;;;;;;5063118;28;20044;-70
2023/04/04 12:57:32;;;;;;;5.22;1.70;;;16.60;99.90;;;;;;5067588;28;20039;-69
2023/04/04 13:00:03;;;;;;;5.68;2.10;;;16.20;99.90;;;;;;5065473;28;20554;-71
2023/04/04 13:02:29;;;;;;;6.82;2.20;;;15.80;99.90;;;;;;5065859;28;20037;-71
2023/04/04 13:04:57;;;;;;;5.72;1.70;;;15.80;99.90;;;;;;5061736;28;20068;-70
2023/04/04 13:07:28;;;;;;;8.48;2.08;;;15.70;99.90;;;;;;5063335;28;20454;-71
2023/04/04 13:09:57;;;;;;;11.13;5.05;;;15.60;99.90;;;;;;5061734;28;20089;-71
2023/04/04 13:12:23;;;;;;;7.70;1.90;;;15.60;99.90;;;;;;5065182;28;20103;-70
2023/04/04 13:15:10;;;;;;;7.70;2.10;;;15.70;99.90;;;;;;5060354;28;20032;-70
2023/04/04 13:17:47;;;;;;;4.53;1.60;;;15.90;99.90;;;;;;5063129;28;20077;-71
2023/04/04 13:20:15;;;;;;;5.05;1.92;;;16.10;99.90;;;;;;5065456;28;20028;-71
2023/04/04 13:22:41;;;;;;;5.57;2.00;;;16.00;99.90;;;;;;5058263;28;20443;-70
2023/04/04 13:25:08;;;;;;;5.13;1.40;;;15.60;99.90;;;;;;5062570;28;20510;-70
2023/04/04 13:27:35;;;;;;;5.20;1.88;;;15.00;99.90;;;;;;5066640;28;20043;-69
2023/04/04 13:30:01;;;;;;;7.80;2.17;;;14.80;99.90;;;;;;5064188;28;20020;-71
2023/04/04 13:32:26;;;;;;;6.25;2.90;;;14.70;99.90;;;;;;5064475;28;20077;-70
2023/04/04 13:34:52;;;;;;;6.30;2.08;;;14.90;99.90;;;;;;5065381;28;20095;-71
2023/04/04 13:37:19;;;;;;;3.50;1.42;;;15.00;99.90;;;;;;5065130;28;20028;-70
2023/04/04 13:39:44;;;;;;;4.47;1.70;;;15.10;99.90;;;;;;5060129;28;20525;-71
2023/04/04 13:42:10;;;;;;;6.57;2.05;;;15.30;99.90;;;;;;5064123;28;20037;-71
2023/04/04 13:44:35;;;;;;;5.10;2.45;;;15.80;99.90;;;;;;5067629;28;20031;-70
2023/04/04 13:47:01;;;;;;;6.88;2.20;;;16.60;99.90;;;;;;5066605;28;20485;-70